sensor_id;sensor_type;location;lat;lon;timestamp;P1;durP1;ratioP1;P2;durP2;ratioP2
2724;SDS011;1370;52.596;13.112;2024-02-21T00:00:47;15.20;;;8.47;;
2724;SDS011;1370;52.596;13.112;2024-02-21T00:03:13;29.20;;;9.87;;
2724;SDS011;1370;52.596;13.112;2024-02-21T00:05:38;12.13;;;8.00;;
2724;SDS011;1370;52.596;13.112;2024-02-21T00:08:03;15.07;;;8.57;;
2724;SDS011;1370;52.596;13.112;2024-02-21T00:10:29;19.37;;;9.70;;
2724;SDS011;1370;52.596;13.112;2024-02-21T00:12:56;21.40;;;9.63;;
2724;SDS011;1370;52.596;13.112;2024-02-21T00:15:21;31.13;;;10.50;;
2724;SDS011;1370;52.596;13.112;2024-02-21T00:17:47;16.47;;;9.13;;
2724;SDS011;1370;52.596;13.112;2024-02-21T00:20:13;20.37;;;8.23;;
2724;SDS011;1370;52.596;13.112;2024-02-21T00:22:39;16.83;;;8.90;;
2724;SDS011;1370;52.596;13.112;2024-02-21T00:25:04;19.40;;;8.37;;
2724;SDS011;1370;52.596;13.112;2024-02-21T00:27:29;22.70;;;7.57;;
2724;SDS011;1370;52.596;13.112;2024-02-21T00:29:55;26.60;;;8.33;;
2724;SDS011;1370;52.596;13.112;2024-02-21T00:32:20;25.90;;;9.03;;
2724;SDS011;1370;52.596;13.112;2024-02-21T00:34:45;23.40;;;7.50;;
2724;SDS011;1370;52.596;13.112;2024-02-21T00:37:11;18.50;;;7.83;;
2724;SDS011;1370;52.596;13.112;2024-02-21T00:39:36;32.23;;;10.13;;
2724;SDS011;1370;52.596;13.112;2024-02-21T00:42:02;19.53;;;7.80;;
2724;SDS011;1370;52.596;13.112;2024-02-21T00:44:27;12.40;;;7.03;;
2724;SDS011;1370;52.596;13.112;2024-02-21T00:46:52;12.20;;;7.27;;
2724;SDS011;1370;52.596;13.112;2024-02-21T00:49:18;20.23;;;9.50;;
2724;SDS011;1370;52.596;13.112;2024-02-21T00:51:43;9.00;;;6.33;;
2724;SDS011;1370;52.596;13.112;2024-02-21T00:54:08;14.37;;;7.17;;
2724;SDS011;1370;52.596;13.112;2024-02-21T00:56:34;15.70;;;7.20;;
2724;SDS011;1370;52.596;13.112;2024-02-21T00:58:59;18.23;;;7.20;;
2724;SDS011;1370;52.596;13.112;2024-02-21T01:01:25;14.90;;;7.50;;
2724;SDS011;1370;52.596;13.112;2024-02-21T01:03:50;14.13;;;6.70;;
2724;SDS011;1370;52.596;13.112;2024-02-21T01:06:18;17.07;;;7.40;;
2724;SDS011;1370;52.596;13.112;2024-02-21T01:08:43;17.40;;;8.03;;
2724;SDS011;1370;52.596;13.112;2024-02-21T01:11:08;14.30;;;6.73;;
2724;SDS011;1370;52.596;13.112;2024-02-21T01:13:34;18.23;;;8.87;;
2724;SDS011;1370;52.596;13.112;2024-02-21T01:15:59;22.57;;;7.60;;
2724;SDS011;1370;52.596;13.112;2024-02-21T01:18:24;19.03;;;6.80;;
2724;SDS011;1370;52.596;13.112;2024-02-21T01:20:50;22.93;;;7.73;;
2724;SDS011;1370;52.596;13.112;2024-02-21T01:23:15;19.17;;;8.20;;
2724;SDS011;1370;52.596;13.112;2024-02-21T01:25:40;13.50;;;7.50;;
2724;SDS011;1370;52.596;13.112;2024-02-21T01:28:06;18.37;;;7.43;;
2724;SDS011;1370;52.596;13.112;2024-02-21T01:30:31;16.50;;;6.77;;
2724;SDS011;1370;52.596;13.112;2024-02-21T01:32:56;17.47;;;6.47;;
2724;SDS011;1370;52.596;13.112;2024-02-21T01:35:21;22.20;;;7.80;;
2724;SDS011;1370;52.596;13.112;2024-02-21T01:37:47;13.53;;;6.73;;
2724;SDS011;1370;52.596;13.112;2024-02-21T01:40:12;15.03;;;8.00;;
2724;SDS011;1370;52.596;13.112;2024-02-21T01:42:38;17.17;;;7.80;;
2724;SDS011;1370;52.596;13.112;2024-02-21T01:45:04;12.57;;;6.73;;
2724;SDS011;1370;52.596;13.112;2024-02-21T01:47:30;19.73;;;8.50;;
2724;SDS011;1370;52.596;13.112;2024-02-21T01:49:55;23.33;;;8.03;;
2724;SDS011;1370;52.596;13.112;2024-02-21T01:52:21;16.33;;;7.40;;
2724;SDS011;1370;52.596;13.112;2024-02-21T01:54:46;15.30;;;6.53;;
2724;SDS011;1370;52.596;13.112;2024-02-21T01:57:12;18.13;;;7.07;;
2724;SDS011;1370;52.596;13.112;2024-02-21T01:59:37;16.67;;;6.83;;
2724;SDS011;1370;52.596;13.112;2024-02-21T02:02:02;11.77;;;7.13;;
2724;SDS011;1370;52.596;13.112;2024-02-21T02:04:27;11.40;;;6.27;;
2724;SDS011;1370;52.596;13.112;2024-02-21T02:06:54;20.40;;;7.27;;
2724;SDS011;1370;52.596;13.112;2024-02-21T02:09:19;15.90;;;5.80;;
2724;SDS011;1370;52.596;13.112;2024-02-21T02:11:45;16.30;;;7.77;;
2724;SDS011;1370;52.596;13.112;2024-02-21T02:14:10;17.57;;;6.33;;
2724;SDS011;1370;52.596;13.112;2024-02-21T02:16:35;14.43;;;7.23;;
2724;SDS011;1370;52.596;13.112;2024-02-21T02:19:01;21.50;;;7.30;;
2724;SDS011;1370;52.596;13.112;2024-02-21T02:21:27;16.80;;;6.27;;
2724;SDS011;1370;52.596;13.112;2024-02-21T02:23:54;10.23;;;6.70;;
2724;SDS011;1370;52.596;13.112;2024-02-21T02:26:19;10.20;;;7.27;;
2724;SDS011;1370;52.596;13.112;2024-02-21T02:28:45;28.20;;;8.27;;
2724;SDS011;1370;52.596;13.112;2024-02-21T02:31:10;17.03;;;8.03;;
2724;SDS011;1370;52.596;13.112;2024-02-21T02:33:36;21.00;;;8.47;;
2724;SDS011;1370;52.596;13.112;2024-02-21T02:36:01;11.90;;;7.90;;
2724;SDS011;1370;52.596;13.112;2024-02-21T02:38:26;14.67;;;6.60;;
2724;SDS011;1370;52.596;13.112;2024-02-21T02:40:52;17.33;;;7.97;;
2724;SDS011;1370;52.596;13.112;2024-02-21T02:43:17;15.70;;;7.57;;
2724;SDS011;1370;52.596;13.112;2024-02-21T02:45:42;11.40;;;6.67;;
2724;SDS011;1370;52.596;13.112;2024-02-21T02:48:08;18.40;;;7.00;;
2724;SDS011;1370;52.596;13.112;2024-02-21T02:50:33;12.90;;;7.20;;
2724;SDS011;1370;52.596;13.112;2024-02-21T02:52:58;19.07;;;8.77;;
2724;SDS011;1370;52.596;13.112;2024-02-21T02:55:24;19.23;;;8.33;;
2724;SDS011;1370;52.596;13.112;2024-02-21T02:57:49;19.73;;;8.10;;
2724;SDS011;1370;52.596;13.112;2024-02-21T03:00:14;16.90;;;7.50;;
2724;SDS011;1370;52.596;13.112;2024-02-21T03:02:40;23.33;;;8.77;;
2724;SDS011;1370;52.596;13.112;2024-02-21T03:07:43;13.13;;;7.77;;
2724;SDS011;1370;52.596;13.112;2024-02-21T03:10:08;18.67;;;7.70;;
2724;SDS011;1370;52.596;13.112;2024-02-21T03:12:34;10.00;;;7.37;;
2724;SDS011;1370;52.596;13.112;2024-02-21T03:14:59;19.00;;;10.10;;
2724;SDS011;1370;52.596;13.112;2024-02-21T03:17:25;16.13;;;7.67;;
2724;SDS011;1370;52.596;13.112;2024-02-21T03:19:51;12.63;;;6.83;;
2724;SDS011;1370;52.596;13.112;2024-02-21T03:22:17;12.33;;;7.30;;
2724;SDS011;1370;52.596;13.112;2024-02-21T03:24:42;12.00;;;7.87;;
2724;SDS011;1370;52.596;13.112;2024-02-21T03:27:08;11.87;;;7.70;;
2724;SDS011;1370;52.596;13.112;2024-02-21T03:29:33;18.17;;;8.80;;
2724;SDS011;1370;52.596;13.112;2024-02-21T03:31:59;22.27;;;8.50;;
2724;SDS011;1370;52.596;13.112;2024-02-21T03:34:24;11.20;;;8.60;;
2724;SDS011;1370;52.596;13.112;2024-02-21T03:36:49;12.37;;;7.87;;
2724;SDS011;1370;52.596;13.112;2024-02-21T03:39:15;23.63;;;8.17;;
2724;SDS011;1370;52.596;13.112;2024-02-21T03:41:40;19.53;;;9.13;;
2724;SDS011;1370;52.596;13.112;2024-02-21T03:44:05;16.30;;;8.97;;
2724;SDS011;1370;52.596;13.112;2024-02-21T03:46:30;21.10;;;10.73;;
2724;SDS011;1370;52.596;13.112;2024-02-21T03:48:56;13.83;;;7.70;;
2724;SDS011;1370;52.596;13.112;2024-02-21T03:51:22;12.70;;;9.73;;
2724;SDS011;1370;52.596;13.112;2024-02-21T03:53:47;20.40;;;8.60;;
2724;SDS011;1370;52.596;13.112;2024-02-21T03:56:12;22.27;;;9.80;;
2724;SDS011;1370;52.596;13.112;2024-02-21T03:58:37;17.30;;;8.63;;
2724;SDS011;1370;52.596;13.112;2024-02-21T04:01:03;15.63;;;9.63;;
2724;SDS011;1370;52.596;13.112;2024-02-21T04:03:28;18.53;;;9.43;;
2724;SDS011;1370;52.596;13.112;2024-02-21T04:05:54;26.70;;;9.73;;
2724;SDS011;1370;52.596;13.112;2024-02-21T04:08:19;16.60;;;8.87;;
2724;SDS011;1370;52.596;13.112;2024-02-21T04:10:45;28.50;;;8.53;;
2724;SDS011;1370;52.596;13.112;2024-02-21T04:13:10;13.73;;;8.60;;
2724;SDS011;1370;52.596;13.112;2024-02-21T04:15:35;19.77;;;8.40;;
2724;SDS011;1370;52.596;13.112;2024-02-21T04:18:01;18.10;;;8.83;;
2724;SDS011;1370;52.596;13.112;2024-02-21T04:20:26;13.50;;;8.33;;
2724;SDS011;1370;52.596;13.112;2024-02-21T04:22:52;12.80;;;7.70;;
2724;SDS011;1370;52.596;13.112;2024-02-21T04:25:17;34.87;;;9.77;;
2724;SDS011;1370;52.596;13.112;2024-02-21T04:27:42;18.40;;;8.40;;
2724;SDS011;1370;52.596;13.112;2024-02-21T04:30:08;11.17;;;7.60;;
2724;SDS011;1370;52.596;13.112;2024-02-21T04:32:34;19.47;;;8.60;;
2724;SDS011;1370;52.596;13.112;2024-02-21T04:34:59;13.10;;;8.23;;
2724;SDS011;1370;52.596;13.112;2024-02-21T04:37:25;14.37;;;9.30;;
2724;SDS011;1370;52.596;13.112;2024-02-21T04:39:50;14.43;;;8.10;;
2724;SDS011;1370;52.596;13.112;2024-02-21T04:42:15;21.90;;;9.93;;
2724;SDS011;1370;52.596;13.112;2024-02-21T04:44:41;22.83;;;8.60;;
2724;SDS011;1370;52.596;13.112;2024-02-21T04:47:06;13.23;;;10.03;;
2724;SDS011;1370;52.596;13.112;2024-02-21T04:49:32;15.93;;;8.93;;
2724;SDS011;1370;52.596;13.112;2024-02-21T04:51:57;16.53;;;8.70;;
2724;SDS011;1370;52.596;13.112;2024-02-21T04:54:23;27.63;;;9.70;;
2724;SDS011;1370;52.596;13.112;2024-02-21T04:56:48;16.50;;;9.23;;
2724;SDS011;1370;52.596;13.112;2024-02-21T04:59:13;13.50;;;7.33;;
2724;SDS011;1370;52.596;13.112;2024-02-21T05:01:39;22.10;;;9.93;;
2724;SDS011;1370;52.596;13.112;2024-02-21T05:04:04;15.30;;;8.10;;
2724;SDS011;1370;52.596;13.112;2024-02-21T05:06:29;16.17;;;9.50;;
2724;SDS011;1370;52.596;13.112;2024-02-21T05:08:55;16.00;;;8.73;;
2724;SDS011;1370;52.596;13.112;2024-02-21T05:11:20;19.07;;;8.37;;
2724;SDS011;1370;52.596;13.112;2024-02-21T05:13:46;14.10;;;8.10;;
2724;SDS011;1370;52.596;13.112;2024-02-21T05:16:11;22.30;;;9.47;;
2724;SDS011;1370;52.596;13.112;2024-02-21T05:18:36;16.03;;;8.93;;
2724;SDS011;1370;52.596;13.112;2024-02-21T05:21:02;13.97;;;7.50;;
2724;SDS011;1370;52.596;13.112;2024-02-21T05:23:27;22.33;;;11.00;;
2724;SDS011;1370;52.596;13.112;2024-02-21T05:25:52;17.83;;;9.20;;
2724;SDS011;1370;52.596;13.112;2024-02-21T05:28:18;18.57;;;10.03;;
2724;SDS011;1370;52.596;13.112;2024-02-21T05:30:43;22.73;;;10.20;;
2724;SDS011;1370;52.596;13.112;2024-02-21T05:33:08;19.70;;;9.17;;
2724;SDS011;1370;52.596;13.112;2024-02-21T05:35:34;17.10;;;9.67;;
2724;SDS011;1370;52.596;13.112;2024-02-21T05:37:59;22.13;;;11.60;;
2724;SDS011;1370;52.596;13.112;2024-02-21T05:40:25;15.20;;;8.63;;
2724;SDS011;1370;52.596;13.112;2024-02-21T05:42:50;23.83;;;9.47;;
2724;SDS011;1370;52.596;13.112;2024-02-21T05:45:16;21.20;;;9.93;;
2724;SDS011;1370;52.596;13.112;2024-02-21T05:47:42;19.30;;;10.30;;
2724;SDS011;1370;52.596;13.112;2024-02-21T05:50:07;17.77;;;9.80;;
2724;SDS011;1370;52.596;13.112;2024-02-21T05:52:33;22.13;;;11.57;;
2724;SDS011;1370;52.596;13.112;2024-02-21T05:54:59;17.60;;;9.93;;
2724;SDS011;1370;52.596;13.112;2024-02-21T05:57:24;24.17;;;10.30;;
2724;SDS011;1370;52.596;13.112;2024-02-21T05:59:49;25.17;;;9.70;;
2724;SDS011;1370;52.596;13.112;2024-02-21T06:02:14;19.90;;;9.57;;
2724;SDS011;1370;52.596;13.112;2024-02-21T06:04:40;18.80;;;10.37;;
2724;SDS011;1370;52.596;13.112;2024-02-21T06:07:05;20.73;;;11.23;;
2724;SDS011;1370;52.596;13.112;2024-02-21T06:09:30;17.40;;;10.30;;
2724;SDS011;1370;52.596;13.112;2024-02-21T06:11:56;21.40;;;9.97;;
2724;SDS011;1370;52.596;13.112;2024-02-21T06:14:22;14.00;;;9.67;;
2724;SDS011;1370;52.596;13.112;2024-02-21T06:16:47;22.50;;;12.27;;
2724;SDS011;1370;52.596;13.112;2024-02-21T06:19:12;26.70;;;11.27;;
2724;SDS011;1370;52.596;13.112;2024-02-21T06:21:38;25.20;;;12.70;;
2724;SDS011;1370;52.596;13.112;2024-02-21T06:24:03;24.33;;;11.33;;
2724;SDS011;1370;52.596;13.112;2024-02-21T06:26:29;19.50;;;10.53;;
2724;SDS011;1370;52.596;13.112;2024-02-21T06:28:54;26.13;;;11.40;;
2724;SDS011;1370;52.596;13.112;2024-02-21T06:31:19;20.50;;;10.73;;
2724;SDS011;1370;52.596;13.112;2024-02-21T06:33:45;18.23;;;10.60;;
2724;SDS011;1370;52.596;13.112;2024-02-21T06:36:10;25.13;;;12.20;;
2724;SDS011;1370;52.596;13.112;2024-02-21T06:38:35;29.43;;;11.87;;
2724;SDS011;1370;52.596;13.112;2024-02-21T06:41:00;26.50;;;11.50;;
2724;SDS011;1370;52.596;13.112;2024-02-21T06:43:27;28.50;;;13.83;;
2724;SDS011;1370;52.596;13.112;2024-02-21T06:45:52;13.10;;;10.50;;
2724;SDS011;1370;52.596;13.112;2024-02-21T06:48:19;18.60;;;11.70;;
2724;SDS011;1370;52.596;13.112;2024-02-21T06:50:44;21.43;;;11.90;;
2724;SDS011;1370;52.596;13.112;2024-02-21T06:53:09;24.80;;;12.37;;
2724;SDS011;1370;52.596;13.112;2024-02-21T06:55:35;28.70;;;12.83;;
2724;SDS011;1370;52.596;13.112;2024-02-21T06:58:00;23.77;;;12.50;;
2724;SDS011;1370;52.596;13.112;2024-02-21T07:00:26;23.97;;;11.03;;
2724;SDS011;1370;52.596;13.112;2024-02-21T07:02:52;22.13;;;11.00;;
2724;SDS011;1370;52.596;13.112;2024-02-21T07:05:18;24.03;;;11.70;;
2724;SDS011;1370;52.596;13.112;2024-02-21T07:07:43;18.97;;;12.20;;
2724;SDS011;1370;52.596;13.112;2024-02-21T07:10:08;26.57;;;13.10;;
2724;SDS011;1370;52.596;13.112;2024-02-21T07:12:34;21.70;;;11.40;;
2724;SDS011;1370;52.596;13.112;2024-02-21T07:15:00;26.83;;;12.87;;
2724;SDS011;1370;52.596;13.112;2024-02-21T07:17:26;16.67;;;12.23;;
2724;SDS011;1370;52.596;13.112;2024-02-21T07:19:51;17.03;;;10.87;;
2724;SDS011;1370;52.596;13.112;2024-02-21T07:22:16;25.63;;;11.83;;
2724;SDS011;1370;52.596;13.112;2024-02-21T07:24:41;42.03;;;13.40;;
2724;SDS011;1370;52.596;13.112;2024-02-21T07:27:07;21.50;;;11.20;;
2724;SDS011;1370;52.596;13.112;2024-02-21T07:29:32;23.93;;;11.57;;
2724;SDS011;1370;52.596;13.112;2024-02-21T07:31:57;20.07;;;12.97;;
2724;SDS011;1370;52.596;13.112;2024-02-21T07:34:23;29.43;;;12.40;;
2724;SDS011;1370;52.596;13.112;2024-02-21T07:36:48;15.70;;;11.50;;
2724;SDS011;1370;52.596;13.112;2024-02-21T07:39:13;17.03;;;11.00;;
2724;SDS011;1370;52.596;13.112;2024-02-21T07:41:38;18.63;;;10.80;;
2724;SDS011;1370;52.596;13.112;2024-02-21T07:44:05;21.37;;;12.17;;
2724;SDS011;1370;52.596;13.112;2024-02-21T07:46:30;20.40;;;13.37;;
2724;SDS011;1370;52.596;13.112;2024-02-21T07:48:55;19.03;;;9.83;;
2724;SDS011;1370;52.596;13.112;2024-02-21T07:51:21;12.93;;;8.90;;
2724;SDS011;1370;52.596;13.112;2024-02-21T07:53:46;19.40;;;11.27;;
2724;SDS011;1370;52.596;13.112;2024-02-21T07:56:12;18.20;;;10.70;;
2724;SDS011;1370;52.596;13.112;2024-02-21T07:58:39;18.33;;;9.57;;
2724;SDS011;1370;52.596;13.112;2024-02-21T08:01:05;18.87;;;9.67;;
2724;SDS011;1370;52.596;13.112;2024-02-21T08:03:30;17.27;;;10.30;;
2724;SDS011;1370;52.596;13.112;2024-02-21T08:05:55;21.03;;;10.60;;
2724;SDS011;1370;52.596;13.112;2024-02-21T08:08:21;15.93;;;10.10;;
2724;SDS011;1370;52.596;13.112;2024-02-21T08:10:47;19.73;;;10.03;;
2724;SDS011;1370;52.596;13.112;2024-02-21T08:13:13;19.60;;;9.90;;
2724;SDS011;1370;52.596;13.112;2024-02-21T08:15:38;20.17;;;10.70;;
2724;SDS011;1370;52.596;13.112;2024-02-21T08:18:04;18.50;;;11.93;;
2724;SDS011;1370;52.596;13.112;2024-02-21T08:20:30;14.73;;;9.33;;
2724;SDS011;1370;52.596;13.112;2024-02-21T08:22:55;17.70;;;9.33;;
2724;SDS011;1370;52.596;13.112;2024-02-21T08:25:20;22.03;;;10.97;;
2724;SDS011;1370;52.596;13.112;2024-02-21T08:27:46;15.30;;;8.73;;
2724;SDS011;1370;52.596;13.112;2024-02-21T08:30:11;19.40;;;11.37;;
2724;SDS011;1370;52.596;13.112;2024-02-21T08:32:37;21.93;;;10.70;;
2724;SDS011;1370;52.596;13.112;2024-02-21T08:35:02;14.33;;;9.10;;
2724;SDS011;1370;52.596;13.112;2024-02-21T08:37:28;20.60;;;10.47;;
2724;SDS011;1370;52.596;13.112;2024-02-21T08:39:53;17.20;;;10.17;;
2724;SDS011;1370;52.596;13.112;2024-02-21T08:42:19;14.80;;;10.23;;
2724;SDS011;1370;52.596;13.112;2024-02-21T08:44:44;27.47;;;12.43;;
2724;SDS011;1370;52.596;13.112;2024-02-21T08:47:09;14.30;;;9.67;;
2724;SDS011;1370;52.596;13.112;2024-02-21T08:49:35;20.20;;;12.20;;
2724;SDS011;1370;52.596;13.112;2024-02-21T08:52:00;20.80;;;11.40;;
2724;SDS011;1370;52.596;13.112;2024-02-21T08:54:27;16.13;;;10.40;;
2724;SDS011;1370;52.596;13.112;2024-02-21T08:56:52;16.13;;;10.13;;
2724;SDS011;1370;52.596;13.112;2024-02-21T08:59:17;20.57;;;11.20;;
2724;SDS011;1370;52.596;13.112;2024-02-21T09:01:43;21.23;;;10.87;;
2724;SDS011;1370;52.596;13.112;2024-02-21T09:04:09;20.77;;;11.67;;
2724;SDS011;1370;52.596;13.112;2024-02-21T09:06:34;19.67;;;12.53;;
2724;SDS011;1370;52.596;13.112;2024-02-21T09:09:02;21.90;;;11.57;;
2724;SDS011;1370;52.596;13.112;2024-02-21T09:11:27;21.47;;;12.13;;
2724;SDS011;1370;52.596;13.112;2024-02-21T09:13:53;23.27;;;11.20;;
2724;SDS011;1370;52.596;13.112;2024-02-21T09:16:18;24.97;;;13.80;;
2724;SDS011;1370;52.596;13.112;2024-02-21T09:18:43;21.53;;;11.30;;
2724;SDS011;1370;52.596;13.112;2024-02-21T09:21:08;18.70;;;11.60;;
2724;SDS011;1370;52.596;13.112;2024-02-21T09:23:34;27.40;;;12.87;;
2724;SDS011;1370;52.596;13.112;2024-02-21T09:25:59;19.83;;;12.67;;
2724;SDS011;1370;52.596;13.112;2024-02-21T09:28:28;18.77;;;12.57;;
2724;SDS011;1370;52.596;13.112;2024-02-21T09:30:53;26.93;;;11.60;;
2724;SDS011;1370;52.596;13.112;2024-02-21T09:33:19;17.43;;;11.17;;
2724;SDS011;1370;52.596;13.112;2024-02-21T09:35:44;14.83;;;13.23;;
2724;SDS011;1370;52.596;13.112;2024-02-21T09:38:09;20.73;;;10.70;;
2724;SDS011;1370;52.596;13.112;2024-02-21T09:40:34;21.70;;;11.73;;
2724;SDS011;1370;52.596;13.112;2024-02-21T09:43:03;15.80;;;12.30;;
2724;SDS011;1370;52.596;13.112;2024-02-21T09:45:31;27.17;;;11.77;;
2724;SDS011;1370;52.596;13.112;2024-02-21T09:48:19;19.13;;;11.20;;
2724;SDS011;1370;52.596;13.112;2024-02-21T09:50:51;29.67;;;11.80;;
2724;SDS011;1370;52.596;13.112;2024-02-21T09:53:16;22.93;;;12.10;;
2724;SDS011;1370;52.596;13.112;2024-02-21T09:55:43;17.17;;;12.10;;
2724;SDS011;1370;52.596;13.112;2024-02-21T09:58:09;20.27;;;12.67;;
2724;SDS011;1370;52.596;13.112;2024-02-21T10:00:37;18.77;;;11.20;;
2724;SDS011;1370;52.596;13.112;2024-02-21T10:03:03;15.57;;;10.93;;
2724;SDS011;1370;52.596;13.112;2024-02-21T10:05:34;18.77;;;11.03;;
2724;SDS011;1370;52.596;13.112;2024-02-21T10:08:00;18.83;;;11.63;;
2724;SDS011;1370;52.596;13.112;2024-02-21T10:10:26;16.37;;;10.90;;
2724;SDS011;1370;52.596;13.112;2024-02-21T10:12:52;20.60;;;11.80;;
2724;SDS011;1370;52.596;13.112;2024-02-21T10:15:21;20.70;;;11.03;;
2724;SDS011;1370;52.596;13.112;2024-02-21T10:17:59;14.60;;;9.90;;
2724;SDS011;1370;52.596;13.112;2024-02-21T10:20:25;14.10;;;11.10;;
2724;SDS011;1370;52.596;13.112;2024-02-21T10:23:01;12.80;;;10.30;;
2724;SDS011;1370;52.596;13.112;2024-02-21T10:25:28;17.20;;;9.87;;
2724;SDS011;1370;52.596;13.112;2024-02-21T10:27:53;16.07;;;8.77;;
2724;SDS011;1370;52.596;13.112;2024-02-21T10:30:19;12.43;;;9.13;;
2724;SDS011;1370;52.596;13.112;2024-02-21T10:32:49;19.60;;;8.87;;
2724;SDS011;1370;52.596;13.112;2024-02-21T10:35:24;15.43;;;10.57;;
2724;SDS011;1370;52.596;13.112;2024-02-21T10:37:57;11.97;;;8.77;;
2724;SDS011;1370;52.596;13.112;2024-02-21T10:40:30;10.27;;;8.50;;
2724;SDS011;1370;52.596;13.112;2024-02-21T10:42:58;9.77;;;8.77;;
2724;SDS011;1370;52.596;13.112;2024-02-21T10:45:31;11.33;;;8.97;;
2724;SDS011;1370;52.596;13.112;2024-02-21T10:48:12;10.77;;;8.80;;
2724;SDS011;1370;52.596;13.112;2024-02-21T10:50:44;13.90;;;9.60;;
2724;SDS011;1370;52.596;13.112;2024-02-21T10:58:54;16.20;;;9.17;;
2724;SDS011;1370;52.596;13.112;2024-02-21T11:01:22;8.70;;;7.90;;
2724;SDS011;1370;52.596;13.112;2024-02-21T11:03:49;12.00;;;8.40;;
2724;SDS011;1370;52.596;13.112;2024-02-21T11:06:16;14.83;;;9.10;;
2724;SDS011;1370;52.596;13.112;2024-02-21T11:08:42;10.77;;;8.67;;
2724;SDS011;1370;52.596;13.112;2024-02-21T11:11:07;12.20;;;7.90;;
2724;SDS011;1370;52.596;13.112;2024-02-21T11:13:36;11.17;;;7.83;;
2724;SDS011;1370;52.596;13.112;2024-02-21T11:16:06;8.93;;;6.60;;
2724;SDS011;1370;52.596;13.112;2024-02-21T11:18:36;12.30;;;8.83;;
2724;SDS011;1370;52.596;13.112;2024-02-21T11:21:01;10.83;;;6.30;;
2724;SDS011;1370;52.596;13.112;2024-02-21T11:23:29;44.27;;;9.57;;
2724;SDS011;1370;52.596;13.112;2024-02-21T11:26:07;7.13;;;6.43;;
2724;SDS011;1370;52.596;13.112;2024-02-21T11:28:33;8.07;;;7.03;;
2724;SDS011;1370;52.596;13.112;2024-02-21T11:31:10;10.23;;;7.50;;
2724;SDS011;1370;52.596;13.112;2024-02-21T11:33:42;11.00;;;6.00;;
2724;SDS011;1370;52.596;13.112;2024-02-21T11:36:08;6.00;;;5.50;;
2724;SDS011;1370;52.596;13.112;2024-02-21T11:38:34;8.30;;;6.40;;
2724;SDS011;1370;52.596;13.112;2024-02-21T11:40:59;7.67;;;6.00;;
2724;SDS011;1370;52.596;13.112;2024-02-21T11:43:25;5.47;;;4.60;;
2724;SDS011;1370;52.596;13.112;2024-02-21T11:45:50;11.00;;;5.97;;
2724;SDS011;1370;52.596;13.112;2024-02-21T11:48:16;9.10;;;5.80;;
2724;SDS011;1370;52.596;13.112;2024-02-21T11:50:41;6.93;;;4.50;;
2724;SDS011;1370;52.596;13.112;2024-02-21T11:53:06;9.23;;;5.10;;
2724;SDS011;1370;52.596;13.112;2024-02-21T11:55:32;7.53;;;6.13;;
2724;SDS011;1370;52.596;13.112;2024-02-21T11:57:57;6.57;;;4.90;;
2724;SDS011;1370;52.596;13.112;2024-02-21T12:00:22;6.47;;;5.57;;
2724;SDS011;1370;52.596;13.112;2024-02-21T12:02:51;4.93;;;4.53;;
2724;SDS011;1370;52.596;13.112;2024-02-21T12:05:18;6.30;;;4.63;;
2724;SDS011;1370;52.596;13.112;2024-02-21T12:07:43;5.17;;;4.60;;
2724;SDS011;1370;52.596;13.112;2024-02-21T12:10:09;5.17;;;4.73;;
2724;SDS011;1370;52.596;13.112;2024-02-21T12:12:35;5.87;;;5.37;;
2724;SDS011;1370;52.596;13.112;2024-02-21T12:15:02;5.10;;;4.70;;
2724;SDS011;1370;52.596;13.112;2024-02-21T12:17:29;7.37;;;5.80;;
2724;SDS011;1370;52.596;13.112;2024-02-21T12:19:54;12.33;;;5.60;;
2724;SDS011;1370;52.596;13.112;2024-02-21T12:22:20;12.40;;;6.00;;
2724;SDS011;1370;52.596;13.112;2024-02-21T12:24:45;5.77;;;5.10;;
2724;SDS011;1370;52.596;13.112;2024-02-21T12:27:13;12.73;;;5.80;;
2724;SDS011;1370;52.596;13.112;2024-02-21T12:29:38;7.17;;;5.03;;
2724;SDS011;1370;52.596;13.112;2024-02-21T12:32:04;5.47;;;5.07;;
2724;SDS011;1370;52.596;13.112;2024-02-21T12:34:29;7.10;;;6.50;;
2724;SDS011;1370;52.596;13.112;2024-02-21T12:36:57;6.43;;;4.60;;
2724;SDS011;1370;52.596;13.112;2024-02-21T12:39:23;8.93;;;4.90;;
2724;SDS011;1370;52.596;13.112;2024-02-21T12:41:48;7.77;;;6.33;;
2724;SDS011;1370;52.596;13.112;2024-02-21T12:44:13;9.20;;;5.57;;
2724;SDS011;1370;52.596;13.112;2024-02-21T12:46:39;5.63;;;4.27;;
2724;SDS011;1370;52.596;13.112;2024-02-21T12:49:05;10.70;;;4.77;;
2724;SDS011;1370;52.596;13.112;2024-02-21T12:51:33;5.53;;;3.87;;
2724;SDS011;1370;52.596;13.112;2024-02-21T12:53:59;5.47;;;5.00;;
2724;SDS011;1370;52.596;13.112;2024-02-21T12:56:25;6.67;;;4.50;;
2724;SDS011;1370;52.596;13.112;2024-02-21T12:58:54;7.23;;;5.00;;
2724;SDS011;1370;52.596;13.112;2024-02-21T13:01:20;6.90;;;4.10;;
2724;SDS011;1370;52.596;13.112;2024-02-21T13:03:46;6.50;;;5.83;;
2724;SDS011;1370;52.596;13.112;2024-02-21T13:06:11;7.10;;;4.23;;
2724;SDS011;1370;52.596;13.112;2024-02-21T13:08:37;3.50;;;3.20;;
2724;SDS011;1370;52.596;13.112;2024-02-21T13:11:02;7.00;;;4.17;;
2724;SDS011;1370;52.596;13.112;2024-02-21T13:13:28;6.63;;;3.90;;
2724;SDS011;1370;52.596;13.112;2024-02-21T13:15:53;6.40;;;3.83;;
2724;SDS011;1370;52.596;13.112;2024-02-21T13:18:18;6.10;;;4.63;;
2724;SDS011;1370;52.596;13.112;2024-02-21T13:20:43;5.67;;;4.30;;
2724;SDS011;1370;52.596;13.112;2024-02-21T13:23:09;9.73;;;5.27;;
2724;SDS011;1370;52.596;13.112;2024-02-21T13:25:34;10.53;;;4.93;;
2724;SDS011;1370;52.596;13.112;2024-02-21T13:28:00;6.50;;;5.03;;
2724;SDS011;1370;52.596;13.112;2024-02-21T13:30:25;8.80;;;4.37;;
2724;SDS011;1370;52.596;13.112;2024-02-21T13:32:50;7.70;;;4.63;;
2724;SDS011;1370;52.596;13.112;2024-02-21T13:35:16;7.77;;;4.37;;
2724;SDS011;1370;52.596;13.112;2024-02-21T13:37:41;7.03;;;3.80;;
2724;SDS011;1370;52.596;13.112;2024-02-21T13:40:07;8.03;;;4.73;;
2724;SDS011;1370;52.596;13.112;2024-02-21T13:42:38;6.03;;;4.60;;
2724;SDS011;1370;52.596;13.112;2024-02-21T13:45:04;7.37;;;5.47;;
2724;SDS011;1370;52.596;13.112;2024-02-21T13:47:33;9.13;;;5.37;;
2724;SDS011;1370;52.596;13.112;2024-02-21T13:49:58;8.83;;;5.90;;
2724;SDS011;1370;52.596;13.112;2024-02-21T13:52:24;12.43;;;5.27;;
2724;SDS011;1370;52.596;13.112;2024-02-21T13:54:51;8.40;;;7.70;;
2724;SDS011;1370;52.596;13.112;2024-02-21T13:57:17;7.77;;;4.27;;
2724;SDS011;1370;52.596;13.112;2024-02-21T13:59:42;6.73;;;4.70;;
2724;SDS011;1370;52.596;13.112;2024-02-21T14:02:08;5.43;;;4.93;;
2724;SDS011;1370;52.596;13.112;2024-02-21T14:04:33;7.33;;;5.07;;
2724;SDS011;1370;52.596;13.112;2024-02-21T14:06:59;4.27;;;3.90;;
2724;SDS011;1370;52.596;13.112;2024-02-21T14:09:24;8.73;;;4.83;;
2724;SDS011;1370;52.596;13.112;2024-02-21T14:11:49;12.23;;;4.90;;
2724;SDS011;1370;52.596;13.112;2024-02-21T14:14:15;4.40;;;3.57;;
2724;SDS011;1370;52.596;13.112;2024-02-21T14:16:40;11.17;;;4.97;;
2724;SDS011;1370;52.596;13.112;2024-02-21T14:19:06;5.53;;;3.77;;
2724;SDS011;1370;52.596;13.112;2024-02-21T14:21:31;5.43;;;3.87;;
2724;SDS011;1370;52.596;13.112;2024-02-21T14:23:57;5.57;;;4.53;;
2724;SDS011;1370;52.596;13.112;2024-02-21T14:26:23;7.53;;;4.83;;
2724;SDS011;1370;52.596;13.112;2024-02-21T14:28:48;5.87;;;4.07;;
2724;SDS011;1370;52.596;13.112;2024-02-21T14:31:13;4.90;;;3.97;;
2724;SDS011;1370;52.596;13.112;2024-02-21T14:33:39;5.53;;;4.03;;
2724;SDS011;1370;52.596;13.112;2024-02-21T14:36:04;6.20;;;4.53;;
2724;SDS011;1370;52.596;13.112;2024-02-21T14:38:30;9.40;;;5.40;;
2724;SDS011;1370;52.596;13.112;2024-02-21T14:40:55;7.80;;;4.03;;
2724;SDS011;1370;52.596;13.112;2024-02-21T14:43:20;7.20;;;4.50;;
2724;SDS011;1370;52.596;13.112;2024-02-21T14:45:46;14.17;;;3.57;;